sensor_id;sensor_type;location;lat;lon;timestamp;P1;durP1;ratioP1;P2;durP2;ratioP2
65971;SDS011;52726;48.852;9.152;2023-03-01T00:01:08;8.82;;;5.38;;
65971;SDS011;52726;48.852;9.152;2023-03-01T00:03:41;7.47;;;4.85;;
65971;SDS011;52726;48.852;9.152;2023-03-01T00:06:07;8.73;;;4.78;;
65971;SDS011;52726;48.852;9.152;2023-03-01T00:08:33;8.50;;;5.47;;
65971;SDS011;52726;48.852;9.152;2023-03-01T00:11:01;8.65;;;5.07;;
65971;SDS011;52726;48.852;9.152;2023-03-01T00:13:37;9.00;;;4.88;;
65971;SDS011;52726;48.852;9.152;2023-03-01T00:16:05;8.77;;;4.53;;
65971;SDS011;52726;48.852;9.152;2023-03-01T00:18:59;8.13;;;4.15;;
65971;SDS011;52726;48.852;9.152;2023-03-01T00:21:29;12.73;;;6.13;;
65971;SDS011;52726;48.852;9.152;2023-03-01T00:24:10;5.43;;;3.72;;
65971;SDS011;52726;48.852;9.152;2023-03-01T00:26:54;9.50;;;4.97;;
65971;SDS011;52726;48.852;9.152;2023-03-01T00:29:23;12.48;;;5.22;;
65971;SDS011;52726;48.852;9.152;2023-03-01T00:35:02;6.15;;;4.03;;
65971;SDS011;52726;48.852;9.152;2023-03-01T00:37:51;5.88;;;3.88;;
65971;SDS011;52726;48.852;9.152;2023-03-01T00:41:09;4.70;;;3.92;;
65971;SDS011;52726;48.852;9.152;2023-03-01T00:43:41;10.80;;;5.45;;
65971;SDS011;52726;48.852;9.152;2023-03-01T00:46:41;7.30;;;4.43;;
65971;SDS011;52726;48.852;9.152;2023-03-01T00:49:40;14.18;;;6.38;;
65971;SDS011;52726;48.852;9.152;2023-03-01T00:52:55;11.30;;;5.03;;
65971;SDS011;52726;48.852;9.152;2023-03-01T00:55:28;9.18;;;5.45;;
65971;SDS011;52726;48.852;9.152;2023-03-01T00:58:55;10.05;;;4.80;;
65971;SDS011;52726;48.852;9.152;2023-03-01T01:01:56;9.52;;;4.10;;
65971;SDS011;52726;48.852;9.152;2023-03-01T01:08:34;7.38;;;4.53;;
65971;SDS011;52726;48.852;9.152;2023-03-01T01:12:22;7.75;;;3.95;;
65971;SDS011;52726;48.852;9.152;2023-03-01T01:15:01;12.73;;;5.88;;
65971;SDS011;52726;48.852;9.152;2023-03-01T01:18:16;6.13;;;4.50;;
65971;SDS011;52726;48.852;9.152;2023-03-01T01:20:41;9.07;;;5.18;;
65971;SDS011;52726;48.852;9.152;2023-03-01T01:23:07;10.48;;;6.35;;
65971;SDS011;52726;48.852;9.152;2023-03-01T01:25:34;13.57;;;5.82;;
65971;SDS011;52726;48.852;9.152;2023-03-01T01:28:00;16.15;;;5.78;;
65971;SDS011;52726;48.852;9.152;2023-03-01T01:30:26;11.88;;;5.22;;
65971;SDS011;52726;48.852;9.152;2023-03-01T01:32:51;7.75;;;4.85;;
65971;SDS011;52726;48.852;9.152;2023-03-01T01:35:16;9.63;;;6.30;;
65971;SDS011;52726;48.852;9.152;2023-03-01T01:37:42;8.15;;;5.13;;
65971;SDS011;52726;48.852;9.152;2023-03-01T01:40:09;11.90;;;5.68;;
65971;SDS011;52726;48.852;9.152;2023-03-01T01:42:36;16.10;;;6.60;;
65971;SDS011;52726;48.852;9.152;2023-03-01T01:48:05;9.57;;;4.80;;
65971;SDS011;52726;48.852;9.152;2023-03-01T01:50:35;11.93;;;4.80;;
65971;SDS011;52726;48.852;9.152;2023-03-01T01:53:12;7.30;;;4.25;;
65971;SDS011;52726;48.852;9.152;2023-03-01T01:55:43;10.68;;;4.60;;
65971;SDS011;52726;48.852;9.152;2023-03-01T01:58:11;9.38;;;5.72;;
65971;SDS011;52726;48.852;9.152;2023-03-01T02:00:40;12.18;;;5.15;;
65971;SDS011;52726;48.852;9.152;2023-03-01T02:03:08;13.15;;;6.15;;
65971;SDS011;52726;48.852;9.152;2023-03-01T02:05:38;7.07;;;4.43;;
65971;SDS011;52726;48.852;9.152;2023-03-01T02:08:06;14.38;;;4.97;;
65971;SDS011;52726;48.852;9.152;2023-03-01T02:10:33;7.72;;;4.57;;
65971;SDS011;52726;48.852;9.152;2023-03-01T02:13:00;10.02;;;5.90;;
65971;SDS011;52726;48.852;9.152;2023-03-01T02:15:26;8.45;;;5.22;;
65971;SDS011;52726;48.852;9.152;2023-03-01T02:17:52;10.48;;;5.45;;
65971;SDS011;52726;48.852;9.152;2023-03-01T02:20:22;10.50;;;6.35;;
65971;SDS011;52726;48.852;9.152;2023-03-01T02:22:48;10.45;;;5.78;;
65971;SDS011;52726;48.852;9.152;2023-03-01T02:28:34;9.18;;;6.32;;
65971;SDS011;52726;48.852;9.152;2023-03-01T02:31:02;14.95;;;6.38;;
65971;SDS011;52726;48.852;9.152;2023-03-01T02:33:48;15.90;;;6.40;;
65971;SDS011;52726;48.852;9.152;2023-03-01T02:36:15;13.40;;;5.97;;
65971;SDS011;52726;48.852;9.152;2023-03-01T02:38:43;11.07;;;6.45;;
65971;SDS011;52726;48.852;9.152;2023-03-01T02:41:09;13.77;;;7.15;;
65971;SDS011;52726;48.852;9.152;2023-03-01T02:43:38;16.38;;;7.53;;
65971;SDS011;52726;48.852;9.152;2023-03-01T02:46:15;18.38;;;6.85;;
65971;SDS011;52726;48.852;9.152;2023-03-01T02:48:46;13.60;;;7.30;;
65971;SDS011;52726;48.852;9.152;2023-03-01T02:54:12;12.18;;;4.70;;
65971;SDS011;52726;48.852;9.152;2023-03-01T02:56:41;8.88;;;5.25;;
65971;SDS011;52726;48.852;9.152;2023-03-01T02:59:08;11.27;;;5.93;;
65971;SDS011;52726;48.852;9.152;2023-03-01T03:01:34;24.33;;;7.20;;
65971;SDS011;52726;48.852;9.152;2023-03-01T03:04:10;14.25;;;6.10;;
65971;SDS011;52726;48.852;9.152;2023-03-01T03:06:42;9.23;;;5.70;;
65971;SDS011;52726;48.852;9.152;2023-03-01T03:09:08;10.70;;;6.10;;
65971;SDS011;52726;48.852;9.152;2023-03-01T03:11:33;14.18;;;6.93;;
65971;SDS011;52726;48.852;9.152;2023-03-01T03:13:58;10.63;;;6.75;;
65971;SDS011;52726;48.852;9.152;2023-03-01T03:16:24;14.02;;;6.30;;
65971;SDS011;52726;48.852;9.152;2023-03-01T03:18:49;11.40;;;6.65;;
65971;SDS011;52726;48.852;9.152;2023-03-01T03:21:15;9.75;;;5.93;;
65971;SDS011;52726;48.852;9.152;2023-03-01T03:23:42;11.93;;;6.28;;
65971;SDS011;52726;48.852;9.152;2023-03-01T03:26:08;14.43;;;6.82;;
65971;SDS011;52726;48.852;9.152;2023-03-01T03:28:34;12.65;;;6.22;;
65971;SDS011;52726;48.852;9.152;2023-03-01T03:31:00;13.70;;;7.57;;
65971;SDS011;52726;48.852;9.152;2023-03-01T03:33:29;12.02;;;6.28;;
65971;SDS011;52726;48.852;9.152;2023-03-01T03:35:55;14.15;;;6.93;;
65971;SDS011;52726;48.852;9.152;2023-03-01T03:38:21;15.68;;;7.15;;
65971;SDS011;52726;48.852;9.152;2023-03-01T03:40:48;12.40;;;7.18;;
65971;SDS011;52726;48.852;9.152;2023-03-01T03:43:17;22.58;;;6.93;;
65971;SDS011;52726;48.852;9.152;2023-03-01T03:45:45;12.77;;;6.47;;
65971;SDS011;52726;48.852;9.152;2023-03-01T03:48:12;13.90;;;7.40;;
65971;SDS011;52726;48.852;9.152;2023-03-01T03:50:38;14.10;;;6.32;;
65971;SDS011;52726;48.852;9.152;2023-03-01T03:53:08;9.75;;;7.13;;
65971;SDS011;52726;48.852;9.152;2023-03-01T03:55:55;17.20;;;6.40;;
65971;SDS011;52726;48.852;9.152;2023-03-01T03:58:22;17.08;;;7.28;;
65971;SDS011;52726;48.852;9.152;2023-03-01T04:00:49;14.32;;;6.80;;
65971;SDS011;52726;48.852;9.152;2023-03-01T04:03:16;13.98;;;7.93;;
65971;SDS011;52726;48.852;9.152;2023-03-01T04:05:44;12.75;;;6.82;;
65971;SDS011;52726;48.852;9.152;2023-03-01T04:08:09;16.25;;;7.70;;
65971;SDS011;52726;48.852;9.152;2023-03-01T04:10:37;12.68;;;7.20;;
65971;SDS011;52726;48.852;9.152;2023-03-01T04:13:07;13.68;;;6.97;;
65971;SDS011;52726;48.852;9.152;2023-03-01T04:15:35;11.85;;;6.55;;
65971;SDS011;52726;48.852;9.152;2023-03-01T04:18:00;8.07;;;5.40;;
65971;SDS011;52726;48.852;9.152;2023-03-01T04:20:27;12.27;;;7.07;;
65971;SDS011;52726;48.852;9.152;2023-03-01T04:22:59;21.92;;;5.90;;
65971;SDS011;52726;48.852;9.152;2023-03-01T04:25:42;14.65;;;6.32;;
65971;SDS011;52726;48.852;9.152;2023-03-01T04:28:11;12.25;;;7.00;;
65971;SDS011;52726;48.852;9.152;2023-03-01T04:30:37;13.02;;;6.47;;
65971;SDS011;52726;48.852;9.152;2023-03-01T04:33:04;16.65;;;7.82;;
65971;SDS011;52726;48.852;9.152;2023-03-01T04:35:31;11.93;;;6.40;;
65971;SDS011;52726;48.852;9.152;2023-03-01T04:37:57;10.55;;;6.00;;
65971;SDS011;52726;48.852;9.152;2023-03-01T04:40:22;16.17;;;7.65;;
65971;SDS011;52726;48.852;9.152;2023-03-01T04:42:48;13.98;;;6.53;;
65971;SDS011;52726;48.852;9.152;2023-03-01T04:45:14;13.73;;;7.75;;
65971;SDS011;52726;48.852;9.152;2023-03-01T04:47:43;16.58;;;7.32;;
65971;SDS011;52726;48.852;9.152;2023-03-01T04:50:10;14.13;;;7.38;;
65971;SDS011;52726;48.852;9.152;2023-03-01T04:52:36;11.77;;;6.55;;
65971;SDS011;52726;48.852;9.152;2023-03-01T04:55:02;15.27;;;6.97;;
65971;SDS011;52726;48.852;9.152;2023-03-01T04:57:29;13.68;;;7.78;;
65971;SDS011;52726;48.852;9.152;2023-03-01T04:59:55;13.55;;;7.40;;
65971;SDS011;52726;48.852;9.152;2023-03-01T05:02:20;13.85;;;6.55;;
65971;SDS011;52726;48.852;9.152;2023-03-01T05:04:45;15.02;;;8.18;;
65971;SDS011;52726;48.852;9.152;2023-03-01T05:07:11;15.13;;;7.03;;
65971;SDS011;52726;48.852;9.152;2023-03-01T05:09:37;17.88;;;7.47;;
65971;SDS011;52726;48.852;9.152;2023-03-01T05:12:03;12.43;;;6.35;;
65971;SDS011;52726;48.852;9.152;2023-03-01T05:14:29;17.73;;;6.88;;
65971;SDS011;52726;48.852;9.152;2023-03-01T05:16:54;14.23;;;7.47;;
65971;SDS011;52726;48.852;9.152;2023-03-01T05:19:19;20.08;;;8.40;;
65971;SDS011;52726;48.852;9.152;2023-03-01T05:21:47;14.57;;;7.82;;
65971;SDS011;52726;48.852;9.152;2023-03-01T05:24:34;19.95;;;8.48;;
65971;SDS011;52726;48.852;9.152;2023-03-01T05:27:01;15.07;;;7.75;;
65971;SDS011;52726;48.852;9.152;2023-03-01T05:29:27;19.35;;;7.25;;
65971;SDS011;52726;48.852;9.152;2023-03-01T05:31:55;15.75;;;7.10;;
65971;SDS011;52726;48.852;9.152;2023-03-01T05:34:26;14.18;;;6.88;;
65971;SDS011;52726;48.852;9.152;2023-03-01T05:36:56;18.85;;;9.65;;
65971;SDS011;52726;48.852;9.152;2023-03-01T05:39:23;13.07;;;7.70;;
65971;SDS011;52726;48.852;9.152;2023-03-01T05:41:56;12.98;;;6.53;;
65971;SDS011;52726;48.852;9.152;2023-03-01T05:44:23;12.82;;;6.88;;
65971;SDS011;52726;48.852;9.152;2023-03-01T05:46:49;10.77;;;6.60;;
65971;SDS011;52726;48.852;9.152;2023-03-01T05:49:15;13.35;;;6.88;;
65971;SDS011;52726;48.852;9.152;2023-03-01T05:51:41;12.77;;;6.53;;
65971;SDS011;52726;48.852;9.152;2023-03-01T05:54:08;15.90;;;8.05;;
65971;SDS011;52726;48.852;9.152;2023-03-01T05:56:34;8.98;;;6.05;;
65971;SDS011;52726;48.852;9.152;2023-03-01T05:59:00;12.60;;;7.00;;
65971;SDS011;52726;48.852;9.152;2023-03-01T06:01:26;12.02;;;6.72;;
65971;SDS011;52726;48.852;9.152;2023-03-01T06:03:52;14.48;;;7.25;;
65971;SDS011;52726;48.852;9.152;2023-03-01T06:06:18;16.08;;;6.55;;
65971;SDS011;52726;48.852;9.152;2023-03-01T06:08:43;12.70;;;6.70;;
65971;SDS011;52726;48.852;9.152;2023-03-01T06:11:30;11.43;;;7.18;;
65971;SDS011;52726;48.852;9.152;2023-03-01T06:14:18;13.73;;;7.43;;
65971;SDS011;52726;48.852;9.152;2023-03-01T06:16:57;30.05;;;8.05;;
65971;SDS011;52726;48.852;9.152;2023-03-01T06:19:24;15.95;;;7.22;;
65971;SDS011;52726;48.852;9.152;2023-03-01T06:21:52;17.73;;;6.57;;
65971;SDS011;52726;48.852;9.152;2023-03-01T06:27:52;9.80;;;5.38;;
65971;SDS011;52726;48.852;9.152;2023-03-01T06:30:19;12.45;;;7.15;;
65971;SDS011;52726;48.852;9.152;2023-03-01T06:32:46;16.95;;;7.30;;
65971;SDS011;52726;48.852;9.152;2023-03-01T06:35:15;19.75;;;7.72;;
65971;SDS011;52726;48.852;9.152;2023-03-01T06:38:05;15.05;;;7.90;;
65971;SDS011;52726;48.852;9.152;2023-03-01T06:43:33;10.38;;;6.57;;
65971;SDS011;52726;48.852;9.152;2023-03-01T06:45:58;14.38;;;7.15;;
65971;SDS011;52726;48.852;9.152;2023-03-01T06:48:30;13.27;;;7.00;;
65971;SDS011;52726;48.852;9.152;2023-03-01T06:50:57;10.60;;;7.38;;
65971;SDS011;52726;48.852;9.152;2023-03-01T06:53:24;15.77;;;7.90;;
65971;SDS011;52726;48.852;9.152;2023-03-01T06:55:53;15.88;;;7.30;;
65971;SDS011;52726;48.852;9.152;2023-03-01T06:58:20;10.82;;;6.45;;
65971;SDS011;52726;48.852;9.152;2023-03-01T07:01:08;17.70;;;8.07;;
65971;SDS011;52726;48.852;9.152;2023-03-01T07:03:33;15.90;;;8.20;;
65971;SDS011;52726;48.852;9.152;2023-03-01T07:06:00;15.57;;;8.32;;
65971;SDS011;52726;48.852;9.152;2023-03-01T07:08:26;17.10;;;8.95;;
65971;SDS011;52726;48.852;9.152;2023-03-01T07:10:58;19.42;;;8.52;;
65971;SDS011;52726;48.852;9.152;2023-03-01T07:13:24;17.15;;;7.30;;
65971;SDS011;52726;48.852;9.152;2023-03-01T07:16:08;13.70;;;7.93;;
65971;SDS011;52726;48.852;9.152;2023-03-01T07:18:36;20.92;;;9.18;;
65971;SDS011;52726;48.852;9.152;2023-03-01T07:21:22;17.23;;;8.95;;
65971;SDS011;52726;48.852;9.152;2023-03-01T07:24:00;25.42;;;9.85;;
65971;SDS011;52726;48.852;9.152;2023-03-01T07:26:28;19.13;;;9.48;;
65971;SDS011;52726;48.852;9.152;2023-03-01T07:28:54;16.20;;;8.77;;
65971;SDS011;52726;48.852;9.152;2023-03-01T07:31:54;17.90;;;9.18;;
65971;SDS011;52726;48.852;9.152;2023-03-01T07:34:25;18.20;;;9.57;;
65971;SDS011;52726;48.852;9.152;2023-03-01T07:36:50;17.25;;;8.88;;
65971;SDS011;52726;48.852;9.152;2023-03-01T07:39:15;19.15;;;9.68;;
65971;SDS011;52726;48.852;9.152;2023-03-01T07:41:41;18.85;;;8.95;;
65971;SDS011;52726;48.852;9.152;2023-03-01T07:44:06;13.65;;;8.25;;
65971;SDS011;52726;48.852;9.152;2023-03-01T07:46:31;16.02;;;9.63;;
65971;SDS011;52726;48.852;9.152;2023-03-01T07:48:57;17.45;;;8.85;;
65971;SDS011;52726;48.852;9.152;2023-03-01T07:51:23;17.52;;;9.93;;
65971;SDS011;52726;48.852;9.152;2023-03-01T07:53:49;15.32;;;8.93;;
65971;SDS011;52726;48.852;9.152;2023-03-01T07:56:14;20.13;;;9.38;;
65971;SDS011;52726;48.852;9.152;2023-03-01T07:58:42;15.38;;;9.27;;
65971;SDS011;52726;48.852;9.152;2023-03-01T08:01:10;17.27;;;9.98;;
65971;SDS011;52726;48.852;9.152;2023-03-01T08:03:40;16.48;;;9.02;;
65971;SDS011;52726;48.852;9.152;2023-03-01T08:06:06;17.20;;;9.32;;
65971;SDS011;52726;48.852;9.152;2023-03-01T08:08:34;20.20;;;10.05;;
65971;SDS011;52726;48.852;9.152;2023-03-01T08:11:01;17.88;;;9.50;;
65971;SDS011;52726;48.852;9.152;2023-03-01T08:13:28;17.25;;;9.63;;
65971;SDS011;52726;48.852;9.152;2023-03-01T08:15:53;18.45;;;9.60;;
65971;SDS011;52726;48.852;9.152;2023-03-01T08:18:19;14.38;;;8.05;;
65971;SDS011;52726;48.852;9.152;2023-03-01T08:20:46;14.13;;;8.63;;
65971;SDS011;52726;48.852;9.152;2023-03-01T08:23:11;22.10;;;10.23;;
65971;SDS011;52726;48.852;9.152;2023-03-01T08:25:37;18.45;;;9.75;;
65971;SDS011;52726;48.852;9.152;2023-03-01T08:28:02;16.83;;;9.38;;
65971;SDS011;52726;48.852;9.152;2023-03-01T08:30:28;16.20;;;9.52;;
65971;SDS011;52726;48.852;9.152;2023-03-01T08:32:53;16.67;;;9.00;;
65971;SDS011;52726;48.852;9.152;2023-03-01T08:35:19;16.00;;;8.80;;
65971;SDS011;52726;48.852;9.152;2023-03-01T08:37:45;16.02;;;9.35;;
65971;SDS011;52726;48.852;9.152;2023-03-01T08:40:10;14.30;;;8.32;;
65971;SDS011;52726;48.852;9.152;2023-03-01T08:42:38;15.98;;;9.35;;
65971;SDS011;52726;48.852;9.152;2023-03-01T08:45:04;17.17;;;9.52;;
65971;SDS011;52726;48.852;9.152;2023-03-01T08:47:30;18.95;;;8.85;;
65971;SDS011;52726;48.852;9.152;2023-03-01T08:49:55;17.23;;;8.55;;
65971;SDS011;52726;48.852;9.152;2023-03-01T08:52:20;16.88;;;9.35;;
65971;SDS011;52726;48.852;9.152;2023-03-01T08:54:49;15.80;;;8.68;;
65971;SDS011;52726;48.852;9.152;2023-03-01T08:57:14;15.82;;;9.43;;
65971;SDS011;52726;48.852;9.152;2023-03-01T08:59:40;18.33;;;9.15;;
65971;SDS011;52726;48.852;9.152;2023-03-01T09:02:08;17.80;;;9.95;;
65971;SDS011;52726;48.852;9.152;2023-03-01T09:04:37;17.85;;;8.80;;
65971;SDS011;52726;48.852;9.152;2023-03-01T09:07:03;17.85;;;8.95;;
65971;SDS011;52726;48.852;9.152;2023-03-01T09:09:28;18.63;;;8.82;;
65971;SDS011;52726;48.852;9.152;2023-03-01T09:11:54;16.58;;;9.13;;
65971;SDS011;52726;48.852;9.152;2023-03-01T09:14:19;15.77;;;7.75;;
65971;SDS011;52726;48.852;9.152;2023-03-01T09:16:45;9.73;;;6.30;;
65971;SDS011;52726;48.852;9.152;2023-03-01T09:19:10;18.45;;;8.20;;
65971;SDS011;52726;48.852;9.152;2023-03-01T09:21:36;19.40;;;8.68;;
65971;SDS011;52726;48.852;9.152;2023-03-01T09:24:12;18.38;;;9.13;;
65971;SDS011;52726;48.852;9.152;2023-03-01T09:26:39;14.57;;;6.93;;
65971;SDS011;52726;48.852;9.152;2023-03-01T09:29:04;25.50;;;8.73;;
65971;SDS011;52726;48.852;9.152;2023-03-01T09:31:29;15.75;;;8.30;;
65971;SDS011;52726;48.852;9.152;2023-03-01T09:33:55;11.95;;;5.97;;
65971;SDS011;52726;48.852;9.152;2023-03-01T09:36:21;13.07;;;7.20;;
65971;SDS011;52726;48.852;9.152;2023-03-01T09:38:48;17.38;;;8.57;;
65971;SDS011;52726;48.852;9.152;2023-03-01T09:43:50;16.55;;;8.13;;
65971;SDS011;52726;48.852;9.152;2023-03-01T09:46:18;20.48;;;8.25;;
65971;SDS011;52726;48.852;9.152;2023-03-01T09:48:50;18.90;;;8.52;;
65971;SDS011;52726;48.852;9.152;2023-03-01T09:53:51;24.88;;;8.20;;
65971;SDS011;52726;48.852;9.152;2023-03-01T09:56:20;21.92;;;8.98;;
65971;SDS011;52726;48.852;9.152;2023-03-01T10:07:12;16.85;;;8.25;;
65971;SDS011;52726;48.852;9.152;2023-03-01T10:10:01;15.57;;;7.90;;
65971;SDS011;52726;48.852;9.152;2023-03-01T10:12:54;13.93;;;8.23;;
65971;SDS011;52726;48.852;9.152;2023-03-01T10:15:41;20.98;;;9.65;;
65971;SDS011;52726;48.852;9.152;2023-03-01T10:21:13;12.30;;;6.70;;
65971;SDS011;52726;48.852;9.152;2023-03-01T10:23:41;18.05;;;9.02;;
65971;SDS011;52726;48.852;9.152;2023-03-01T10:29:04;16.67;;;8.73;;
65971;SDS011;52726;48.852;9.152;2023-03-01T10:34:10;17.70;;;8.35;;
65971;SDS011;52726;48.852;9.152;2023-03-01T10:40:03;19.60;;;8.60;;
65971;SDS011;52726;48.852;9.152;2023-03-01T10:42:46;17.80;;;9.43;;
65971;SDS011;52726;48.852;9.152;2023-03-01T10:47:42;13.70;;;7.45;;
65971;SDS011;52726;48.852;9.152;2023-03-01T10:50:17;16.13;;;8.63;;
65971;SDS011;52726;48.852;9.152;2023-03-01T10:52:55;18.45;;;9.38;;
65971;SDS011;52726;48.852;9.152;2023-03-01T10:55:38;17.08;;;8.30;;
65971;SDS011;52726;48.852;9.152;2023-03-01T11:00:46;22.95;;;9.43;;
65971;SDS011;52726;48.852;9.152;2023-03-01T11:03:27;19.20;;;8.35;;
65971;SDS011;52726;48.852;9.152;2023-03-01T11:08:34;14.73;;;7.05;;
65971;SDS011;52726;48.852;9.152;2023-03-01T11:13:57;15.85;;;8.05;;
65971;SDS011;52726;48.852;9.152;2023-03-01T11:23:02;12.70;;;5.93;;
65971;SDS011;52726;48.852;9.152;2023-03-01T11:25:33;12.35;;;7.25;;
65971;SDS011;52726;48.852;9.152;2023-03-01T11:28:01;9.43;;;5.22;;
65971;SDS011;52726;48.852;9.152;2023-03-01T11:36:05;17.17;;;7.72;;
65971;SDS011;52726;48.852;9.152;2023-03-01T11:38:53;14.73;;;8.20;;
65971;SDS011;52726;48.852;9.152;2023-03-01T11:41:21;12.85;;;7.32;;
65971;SDS011;52726;48.852;9.152;2023-03-01T11:44:01;12.27;;;6.68;;
65971;SDS011;52726;48.852;9.152;2023-03-01T11:46:49;15.15;;;7.70;;
65971;SDS011;52726;48.852;9.152;2023-03-01T11:55:16;11.85;;;7.18;;
65971;SDS011;52726;48.852;9.152;2023-03-01T11:58:04;11.98;;;7.03;;
65971;SDS011;52726;48.852;9.152;2023-03-01T12:01:03;13.95;;;7.78;;
65971;SDS011;52726;48.852;9.152;2023-03-01T12:06:59;12.32;;;6.30;;
65971;SDS011;52726;48.852;9.152;2023-03-01T12:12:11;15.95;;;8.75;;
65971;SDS011;52726;48.852;9.152;2023-03-01T12:17:35;10.93;;;7.10;;
65971;SDS011;52726;48.852;9.152;2023-03-01T12:20:38;17.63;;;9.32;;
65971;SDS011;52726;48.852;9.152;2023-03-01T12:23:22;18.50;;;8.02;;
65971;SDS011;52726;48.852;9.152;2023-03-01T12:26:26;13.05;;;7.10;;
65971;SDS011;52726;48.852;9.152;2023-03-01T12:28:55;13.77;;;8.27;;
65971;SDS011;52726;48.852;9.152;2023-03-01T12:50:51;15.90;;;8.00;;
65971;SDS011;52726;48.852;9.152;2023-03-01T12:53:39;14.55;;;6.95;;
65971;SDS011;52726;48.852;9.152;2023-03-01T12:56:10;13.85;;;7.80;;
65971;SDS011;52726;48.852;9.152;2023-03-01T12:58:43;12.30;;;6.75;;
65971;SDS011;52726;48.852;9.152;2023-03-01T13:07:21;13.55;;;6.32;;
65971;SDS011;52726;48.852;9.152;2023-03-01T13:17:52;10.60;;;6.35;;
65971;SDS011;52726;48.852;9.152;2023-03-01T13:20:20;15.82;;;8.55;;
65971;SDS011;52726;48.852;9.152;2023-03-01T13:26:06;14.82;;;8.55;;
65971;SDS011;52726;48.852;9.152;2023-03-01T13:29:11;16.45;;;8.60;;
65971;SDS011;52726;48.852;9.152;2023-03-01T13:31:55;15.13;;;7.70;;
65971;SDS011;52726;48.852;9.152;2023-03-01T13:34:41;14.05;;;8.00;;
65971;SDS011;52726;48.852;9.152;2023-03-01T13:37:09;22.35;;;8.95;;
65971;SDS011;52726;48.852;9.152;2023-03-01T13:45:19;13.73;;;8.13;;
65971;SDS011;52726;48.852;9.152;2023-03-01T13:47:47;19.42;;;9.05;;
65971;SDS011;52726;48.852;9.152;2023-03-01T13:50:28;18.80;;;8.35;;
65971;SDS011;52726;48.852;9.152;2023-03-01T13:53:02;16.33;;;9.10;;
65971;SDS011;52726;48.852;9.152;2023-03-01T13:55:51;15.00;;;7.85;;
65971;SDS011;52726;48.852;9.152;2023-03-01T13:58:24;12.85;;;7.63;;
65971;SDS011;52726;48.852;9.152;2023-03-01T14:00:55;18.55;;;8.52;;
65971;SDS011;52726;48.852;9.152;2023-03-01T14:03:26;19.58;;;9.07;;
65971;SDS011;52726;48.852;9.152;2023-03-01T14:08:35;15.80;;;8.00;;
65971;SDS011;52726;48.852;9.152;2023-03-01T14:19:14;16.85;;;8.15;;
65971;SDS011;52726;48.852;9.152;2023-03-01T14:21:42;16.20;;;8.85;;
65971;SDS011;52726;48.852;9.152;2023-03-01T14:24:20;14.23;;;8.25;;
65971;SDS011;52726;48.852;9.152;2023-03-01T14:26:47;17.35;;;8.88;;
65971;SDS011;52726;48.852;9.152;2023-03-01T14:32:16;19.70;;;10.00;;
65971;SDS011;52726;48.852;9.152;2023-03-01T14:34:45;15.18;;;8.32;;
65971;SDS011;52726;48.852;9.152;2023-03-01T14:39:51;19.30;;;8.75;;
65971;SDS011;52726;48.852;9.152;2023-03-01T14:42:17;20.45;;;10.02;;
65971;SDS011;52726;48.852;9.152;2023-03-01T14:44:46;17.45;;;9.10;;
65971;SDS011;52726;48.852;9.152;2023-03-01T14:47:15;17.90;;;9.57;;
65971;SDS011;52726;48.852;9.152;2023-03-01T14:49:56;16.20;;;9.05;;
65971;SDS011;52726;48.852;9.152;2023-03-01T14:52:31;17.92;;;8.57;;
65971;SDS011;52726;48.852;9.152;2023-03-01T14:54:59;18.48;;;9.13;;
65971;SDS011;52726;48.852;9.152;2023-03-01T14:57:27;20.67;;;9.52;;
65971;SDS011;52726;48.852;9.152;2023-03-01T14:59:53;10.50;;;5.97;;
65971;SDS011;52726;48.852;9.152;2023-03-01T15:02:21;15.02;;;9.02;;
65971;SDS011;52726;48.852;9.152;2023-03-01T15:04:51;13.25;;;7.57;;
65971;SDS011;52726;48.852;9.152;2023-03-01T15:07:17;17.00;;;8.65;;
65971;SDS011;52726;48.852;9.152;2023-03-01T15:09:44;21.20;;;9.07;;
65971;SDS011;52726;48.852;9.152;2023-03-01T15:14:54;16.70;;;8.80;;
65971;SDS011;52726;48.852;9.152;2023-03-01T15:17:23;15.55;;;8.43;;
65971;SDS011;52726;48.852;9.152;2023-03-01T15:20:02;19.85;;;9.23;;
65971;SDS011;52726;48.852;9.152;2023-03-01T15:22:43;17.05;;;8.07;;
65971;SDS011;52726;48.852;9.152;2023-03-01T15:25:20;17.13;;;8.80;;
65971;SDS011;52726;48.852;9.152;2023-03-01T15:27:48;14.30;;;8.00;;
65971;SDS011;52726;48.852;9.152;2023-03-01T15:30:51;16.00;;;8.70;;
65971;SDS011;52726;48.852;9.152;2023-03-01T15:33:17;15.93;;;9.20;;
65971;SDS011;52726;48.852;9.152;2023-03-01T15:35:50;16.55;;;8.35;;
65971;SDS011;52726;48.852;9.152;2023-03-01T15:38:24;16.60;;;8.20;;
65971;SDS011;52726;48.852;9.152;2023-03-01T15:40:50;16.08;;;8.45;;
65971;SDS011;52726;48.852;9.152;2023-03-01T15:46:04;15.77;;;8.80;;
65971;SDS011;52726;48.852;9.152;2023-03-01T15:48:30;16.45;;;8.07;;
65971;SDS011;52726;48.852;9.152;2023-03-01T15:50:59;15.45;;;8.50;;
65971;SDS011;52726;48.852;9.152;2023-03-01T15:53:24;15.40;;;8.20;;
65971;SDS011;52726;48.852;9.152;2023-03-01T15:55:52;20.48;;;8.98;;
65971;SDS011;52726;48.852;9.152;2023-03-01T15:58:22;18.98;;;9.32;;
65971;SDS011;52726;48.852;9.152;2023-03-01T16:00:49;17.08;;;8.70;;
65971;SDS011;52726;48.852;9.152;2023-03-01T16:05:48;15.43;;;7.72;;
65971;SDS011;52726;48.852;9.152;2023-03-01T16:08:15;17.75;;;8.13;;
65971;SDS011;52726;48.852;9.152;2023-03-01T16:10:41;11.43;;;6.72;;
65971;SDS011;52726;48.852;9.152;2023-03-01T16:13:10;16.40;;;8.48;;
65971;SDS011;52726;48.852;9.152;2023-03-01T16:15:37;17.80;;;8.82;;
65971;SDS011;52726;48.852;9.152;2023-03-01T16:18:03;16.45;;;8.50;;
65971;SDS011;52726;48.852;9.152;2023-03-01T16:20:30;15.50;;;7.53;;
65971;SDS011;52726;48.852;9.152;2023-03-01T16:23:01;14.93;;;8.35;;
65971;SDS011;52726;48.852;9.152;2023-03-01T16:25:51;23.35;;;8.80;;
65971;SDS011;52726;48.852;9.152;2023-03-01T16:28:16;14.60;;;7.80;;
65971;SDS011;52726;48.852;9.152;2023-03-01T16:30:46;20.88;;;9.15;;
65971;SDS011;52726;48.852;9.152;2023-03-01T16:33:16;18.85;;;8.38;;
65971;SDS011;52726;48.852;9.152;2023-03-01T16:36:11;16.10;;;8.20;;
65971;SDS011;52726;48.852;9.152;2023-03-01T16:38:37;14.98;;;7.95;;
65971;SDS011;52726;48.852;9.152;2023-03-01T16:41:04;14.77;;;8.75;;
65971;SDS011;52726;48.852;9.152;2023-03-01T16:46:57;18.55;;;7.90;;
65971;SDS011;52726;48.852;9.152;2023-03-01T16:57:20;17.08;;;7.38;;
65971;SDS011;52726;48.852;9.152;2023-03-01T17:00:43;13.75;;;7.50;;
65971;SDS011;52726;48.852;9.152;2023-03-01T17:04:35;16.15;;;7.05;;
65971;SDS011;52726;48.852;9.152;2023-03-01T17:08:10;10.90;;;6.30;;
65971;SDS011;52726;48.852;9.152;2023-03-01T17:13:59;13.07;;;5.97;;
65971;SDS011;52726;48.852;9.152;2023-03-01T17:17:27;13.60;;;6.93;;
65971;SDS011;52726;48.852;9.152;2023-03-01T17:20:31;13.00;;;6.50;;
65971;SDS011;52726;48.852;9.152;2023-03-01T17:24:02;16.27;;;7.75;;
65971;SDS011;52726;48.852;9.152;2023-03-01T17:30:03;17.92;;;7.40;;
65971;SDS011;52726;48.852;9.152;2023-03-01T17:33:26;11.45;;;6.20;;
65971;SDS011;52726;48.852;9.152;2023-03-01T17:36:36;16.27;;;7.30;;
65971;SDS011;52726;48.852;9.152;2023-03-01T17:43:37;18.48;;;7.60;;
65971;SDS011;52726;48.852;9.152;2023-03-01T17:47:21;16.70;;;7.70;;
65971;SDS011;52726;48.852;9.152;2023-03-01T17:50:40;16.15;;;7.35;;
65971;SDS011;52726;48.852;9.152;2023-03-01T17:54:18;14.10;;;7.47;;
65971;SDS011;52726;48.852;9.152;2023-03-01T18:00:56;12.82;;;7.75;;
65971;SDS011;52726;48.852;9.152;2023-03-01T18:11:27;14.47;;;7.40;;
65971;SDS011;52726;48.852;9.152;2023-03-01T18:15:12;23.77;;;6.28;;
65971;SDS011;52726;48.852;9.152;2023-03-01T18:18:25;12.63;;;6.32;;
65971;SDS011;52726;48.852;9.152;2023-03-01T18:21:41;12.05;;;6.22;;